Terminal Aerodrome Forecast
Issued by NWS Melbourne, FL

Home | Current Version | Previous Version | Text Only | Print | Product List | Glossary On
Versions: 1 2 3 4 5 6 7 8 9 10 11 12 13 14 15 16 17 18 19 20 21 22 23 24 25 26 27 28 29 30 31
000
FTUS42 KMLB 260254 AAA
TAFMCO
TAF AMD
KMCO 260254Z 2603/2624 17004KT P6SM SCT250
     FM261000 21002KT P6SM FEW010 SCT250
     FM261400 24006KT P6SM SCT030
     FM262000 16005KT P6SM VCTS SCT040CB SCT100 BKN250=

USA.gov is the U.S. government's official web portal to all federal, state and local government web resources and services.